sensor_id;sensor_type;location;lat;lon;timestamp;P1;durP1;ratioP1;P2;durP2;ratioP2
6902;SDS011;20232;49.408;8.702;2023-03-01T05:02:18;22.80;;;17.83;;
6902;SDS011;20232;49.408;8.702;2023-03-01T05:04:44;22.67;;;17.67;;
6902;SDS011;20232;49.408;8.702;2023-03-01T05:07:09;25.10;;;19.00;;
6902;SDS011;20232;49.408;8.702;2023-03-01T05:09:37;23.23;;;17.70;;
6902;SDS011;20232;49.408;8.702;2023-03-01T05:12:03;22.00;;;18.57;;
6902;SDS011;20232;49.408;8.702;2023-03-01T05:14:29;23.53;;;18.43;;
6902;SDS011;20232;49.408;8.702;2023-03-01T05:16:55;26.13;;;18.87;;
6902;SDS011;20232;49.408;8.702;2023-03-01T05:19:28;24.57;;;18.50;;
6902;SDS011;20232;49.408;8.702;2023-03-01T05:21:55;24.40;;;18.40;;
6902;SDS011;20232;49.408;8.702;2023-03-01T05:24:31;23.77;;;18.40;;
6902;SDS011;20232;49.408;8.702;2023-03-01T05:26:58;25.33;;;19.27;;
6902;SDS011;20232;49.408;8.702;2023-03-01T05:29:25;22.00;;;17.63;;
6902;SDS011;20232;49.408;8.702;2023-03-01T05:31:56;23.57;;;18.33;;
6902;SDS011;20232;49.408;8.702;2023-03-01T05:34:30;25.83;;;18.77;;
6902;SDS011;20232;49.408;8.702;2023-03-01T05:36:58;26.20;;;18.30;;
6902;SDS011;20232;49.408;8.702;2023-03-01T05:39:25;25.07;;;18.40;;
6902;SDS011;20232;49.408;8.702;2023-03-01T05:41:52;24.63;;;19.23;;
6902;SDS011;20232;49.408;8.702;2023-03-01T05:44:19;25.40;;;18.63;;
6902;SDS011;20232;49.408;8.702;2023-03-01T05:46:45;24.87;;;18.73;;
6902;SDS011;20232;49.408;8.702;2023-03-01T05:49:12;23.30;;;18.50;;
6902;SDS011;20232;49.408;8.702;2023-03-01T05:51:38;27.77;;;19.53;;
6902;SDS011;20232;49.408;8.702;2023-03-01T05:54:05;25.57;;;18.77;;
6902;SDS011;20232;49.408;8.702;2023-03-01T05:56:32;27.40;;;19.23;;
6902;SDS011;20232;49.408;8.702;2023-03-01T05:59:02;26.33;;;19.73;;
6902;SDS011;20232;49.408;8.702;2023-03-01T06:01:29;24.37;;;19.17;;
6902;SDS011;20232;49.408;8.702;2023-03-01T06:03:56;23.80;;;18.50;;
6902;SDS011;20232;49.408;8.702;2023-03-01T06:06:21;23.87;;;19.03;;
6902;SDS011;20232;49.408;8.702;2023-03-01T06:08:47;26.03;;;18.77;;
6902;SDS011;20232;49.408;8.702;2023-03-01T06:11:13;25.83;;;19.07;;
6902;SDS011;20232;49.408;8.702;2023-03-01T06:13:40;24.47;;;19.20;;
6902;SDS011;20232;49.408;8.702;2023-03-01T06:16:07;22.57;;;17.60;;
6902;SDS011;20232;49.408;8.702;2023-03-01T06:18:32;24.27;;;18.00;;
6902;SDS011;20232;49.408;8.702;2023-03-01T06:20:58;22.47;;;17.10;;
6902;SDS011;20232;49.408;8.702;2023-03-01T06:23:24;24.93;;;20.10;;
6902;SDS011;20232;49.408;8.702;2023-03-01T06:25:50;25.10;;;18.83;;
6902;SDS011;20232;49.408;8.702;2023-03-01T06:28:15;25.07;;;18.40;;
6902;SDS011;20232;49.408;8.702;2023-03-01T06:30:41;27.03;;;19.37;;
6902;SDS011;20232;49.408;8.702;2023-03-01T06:33:07;24.60;;;18.80;;
6902;SDS011;20232;49.408;8.702;2023-03-01T06:35:33;23.87;;;18.50;;
6902;SDS011;20232;49.408;8.702;2023-03-01T06:37:59;24.10;;;17.77;;
6902;SDS011;20232;49.408;8.702;2023-03-01T06:40:26;25.07;;;19.37;;
6902;SDS011;20232;49.408;8.702;2023-03-01T06:42:52;25.70;;;19.70;;
6902;SDS011;20232;49.408;8.702;2023-03-01T06:45:19;23.20;;;18.07;;
6902;SDS011;20232;49.408;8.702;2023-03-01T06:47:45;28.07;;;18.33;;
6902;SDS011;20232;49.408;8.702;2023-03-01T06:50:12;23.93;;;18.30;;
6902;SDS011;20232;49.408;8.702;2023-03-01T06:52:39;26.67;;;18.30;;
6902;SDS011;20232;49.408;8.702;2023-03-01T06:55:05;25.07;;;18.50;;
6902;SDS011;20232;49.408;8.702;2023-03-01T06:57:31;24.40;;;17.87;;
6902;SDS011;20232;49.408;8.702;2023-03-01T06:59:57;23.07;;;17.90;;
6902;SDS011;20232;49.408;8.702;2023-03-01T07:02:22;24.47;;;18.17;;
6902;SDS011;20232;49.408;8.702;2023-03-01T07:04:49;24.37;;;18.43;;
6902;SDS011;20232;49.408;8.702;2023-03-01T07:07:15;23.33;;;17.30;;
6902;SDS011;20232;49.408;8.702;2023-03-01T07:09:42;24.07;;;18.07;;
6902;SDS011;20232;49.408;8.702;2023-03-01T07:12:09;20.43;;;16.37;;
6902;SDS011;20232;49.408;8.702;2023-03-01T07:14:34;21.93;;;17.63;;
6902;SDS011;20232;49.408;8.702;2023-03-01T07:17:00;23.77;;;17.97;;
6902;SDS011;20232;49.408;8.702;2023-03-01T07:19:26;23.73;;;18.10;;
6902;SDS011;20232;49.408;8.702;2023-03-01T07:21:51;22.70;;;16.80;;
6902;SDS011;20232;49.408;8.702;2023-03-01T07:24:17;26.13;;;17.67;;
6902;SDS011;20232;49.408;8.702;2023-03-01T07:26:43;27.60;;;17.93;;
6902;SDS011;20232;49.408;8.702;2023-03-01T07:29:09;24.53;;;18.57;;
6902;SDS011;20232;49.408;8.702;2023-03-01T07:31:35;22.67;;;17.13;;
6902;SDS011;20232;49.408;8.702;2023-03-01T07:34:01;21.20;;;16.90;;
6902;SDS011;20232;49.408;8.702;2023-03-01T07:36:27;23.17;;;18.27;;
6902;SDS011;20232;49.408;8.702;2023-03-01T07:38:53;30.27;;;18.87;;
6902;SDS011;20232;49.408;8.702;2023-03-01T07:41:20;25.40;;;17.93;;
6902;SDS011;20232;49.408;8.702;2023-03-01T07:43:46;24.67;;;18.57;;
6902;SDS011;20232;49.408;8.702;2023-03-01T07:46:11;25.37;;;18.30;;
6902;SDS011;20232;49.408;8.702;2023-03-01T07:48:37;20.77;;;17.33;;
6902;SDS011;20232;49.408;8.702;2023-03-01T07:51:04;23.70;;;18.30;;
6902;SDS011;20232;49.408;8.702;2023-03-01T07:53:30;22.37;;;18.40;;
6902;SDS011;20232;49.408;8.702;2023-03-01T07:56:00;21.43;;;16.27;;
6902;SDS011;20232;49.408;8.702;2023-03-01T07:58:27;22.83;;;17.93;;
6902;SDS011;20232;49.408;8.702;2023-03-01T08:00:52;24.37;;;18.33;;
6902;SDS011;20232;49.408;8.702;2023-03-01T08:03:18;22.80;;;17.27;;
6902;SDS011;20232;49.408;8.702;2023-03-01T08:05:43;23.63;;;17.97;;
6902;SDS011;20232;49.408;8.702;2023-03-01T08:08:09;23.00;;;17.63;;
6902;SDS011;20232;49.408;8.702;2023-03-01T08:10:35;21.00;;;17.30;;
6902;SDS011;20232;49.408;8.702;2023-03-01T08:13:01;25.60;;;18.83;;
6902;SDS011;20232;49.408;8.702;2023-03-01T08:15:26;21.67;;;17.90;;
6902;SDS011;20232;49.408;8.702;2023-03-01T08:17:52;23.80;;;17.87;;
6902;SDS011;20232;49.408;8.702;2023-03-01T08:20:17;26.40;;;18.43;;
6902;SDS011;20232;49.408;8.702;2023-03-01T08:22:43;24.43;;;19.07;;
6902;SDS011;20232;49.408;8.702;2023-03-01T08:25:09;25.43;;;18.67;;
6902;SDS011;20232;49.408;8.702;2023-03-01T08:27:35;24.83;;;18.63;;
6902;SDS011;20232;49.408;8.702;2023-03-01T08:30:00;29.97;;;21.27;;
6902;SDS011;20232;49.408;8.702;2023-03-01T08:32:26;28.33;;;18.53;;
6902;SDS011;20232;49.408;8.702;2023-03-01T08:34:51;25.27;;;18.23;;
6902;SDS011;20232;49.408;8.702;2023-03-01T08:37:17;26.60;;;19.17;;
6902;SDS011;20232;49.408;8.702;2023-03-01T08:39:42;23.87;;;19.03;;
6902;SDS011;20232;49.408;8.702;2023-03-01T08:42:08;30.30;;;20.10;;
6902;SDS011;20232;49.408;8.702;2023-03-01T08:44:34;25.67;;;18.83;;
6902;SDS011;20232;49.408;8.702;2023-03-01T08:47:00;24.70;;;18.37;;
6902;SDS011;20232;49.408;8.702;2023-03-01T08:49:27;25.40;;;18.80;;
6902;SDS011;20232;49.408;8.702;2023-03-01T08:51:52;27.43;;;18.67;;
6902;SDS011;20232;49.408;8.702;2023-03-01T08:54:19;25.40;;;18.40;;
6902;SDS011;20232;49.408;8.702;2023-03-01T08:56:45;24.07;;;18.50;;
6902;SDS011;20232;49.408;8.702;2023-03-01T08:59:11;23.50;;;18.03;;
6902;SDS011;20232;49.408;8.702;2023-03-01T09:01:38;28.37;;;19.40;;
6902;SDS011;20232;49.408;8.702;2023-03-01T09:04:05;24.27;;;18.30;;
6902;SDS011;20232;49.408;8.702;2023-03-01T09:06:31;31.60;;;20.07;;
6902;SDS011;20232;49.408;8.702;2023-03-01T09:08:58;26.13;;;19.70;;
6902;SDS011;20232;49.408;8.702;2023-03-01T09:11:24;25.43;;;18.37;;
6902;SDS011;20232;49.408;8.702;2023-03-01T09:13:49;23.77;;;17.90;;
6902;SDS011;20232;49.408;8.702;2023-03-01T09:16:17;26.57;;;18.67;;
6902;SDS011;20232;49.408;8.702;2023-03-01T09:18:44;32.33;;;19.90;;
6902;SDS011;20232;49.408;8.702;2023-03-01T09:21:13;25.70;;;18.97;;
6902;SDS011;20232;49.408;8.702;2023-03-01T09:23:41;22.60;;;18.17;;
6902;SDS011;20232;49.408;8.702;2023-03-01T09:26:09;29.43;;;20.27;;
6902;SDS011;20232;49.408;8.702;2023-03-01T09:28:37;24.87;;;18.90;;
6902;SDS011;20232;49.408;8.702;2023-03-01T09:31:03;26.67;;;18.93;;
6902;SDS011;20232;49.408;8.702;2023-03-01T09:33:29;23.03;;;18.50;;
6902;SDS011;20232;49.408;8.702;2023-03-01T09:35:57;24.10;;;18.03;;
6902;SDS011;20232;49.408;8.702;2023-03-01T09:38:23;23.13;;;18.40;;
6902;SDS011;20232;49.408;8.702;2023-03-01T09:40:49;23.43;;;18.53;;
6902;SDS011;20232;49.408;8.702;2023-03-01T09:43:17;26.57;;;20.63;;
6902;SDS011;20232;49.408;8.702;2023-03-01T09:46:08;30.53;;;22.43;;
6902;SDS011;20232;49.408;8.702;2023-03-01T09:48:44;26.60;;;20.23;;
6902;SDS011;20232;49.408;8.702;2023-03-01T09:51:16;24.10;;;19.90;;
6902;SDS011;20232;49.408;8.702;2023-03-01T09:53:46;24.23;;;19.07;;
6902;SDS011;20232;49.408;8.702;2023-03-01T09:56:14;24.53;;;19.03;;
6902;SDS011;20232;49.408;8.702;2023-03-01T10:01:38;26.83;;;19.50;;
6902;SDS011;20232;49.408;8.702;2023-03-01T10:06:58;25.00;;;19.23;;
6902;SDS011;20232;49.408;8.702;2023-03-01T10:09:36;19.87;;;17.00;;
6902;SDS011;20232;49.408;8.702;2023-03-01T10:12:04;22.03;;;18.53;;
6902;SDS011;20232;49.408;8.702;2023-03-01T10:17:37;24.37;;;18.67;;
6902;SDS011;20232;49.408;8.702;2023-03-01T10:22:48;24.47;;;18.20;;
6902;SDS011;20232;49.408;8.702;2023-03-01T10:25:20;28.37;;;20.13;;
6902;SDS011;20232;49.408;8.702;2023-03-01T10:28:19;28.50;;;19.67;;
6902;SDS011;20232;49.408;8.702;2023-03-01T10:30:50;23.33;;;18.23;;
6902;SDS011;20232;49.408;8.702;2023-03-01T10:33:26;21.43;;;17.43;;
6902;SDS011;20232;49.408;8.702;2023-03-01T10:35:55;19.13;;;16.80;;
6902;SDS011;20232;49.408;8.702;2023-03-01T10:38:20;21.07;;;17.50;;
6902;SDS011;20232;49.408;8.702;2023-03-01T10:40:56;21.50;;;16.60;;
6902;SDS011;20232;49.408;8.702;2023-03-01T10:49:07;20.53;;;16.67;;
6902;SDS011;20232;49.408;8.702;2023-03-01T10:51:48;21.10;;;16.57;;
6902;SDS011;20232;49.408;8.702;2023-03-01T10:56:46;19.70;;;16.30;;
6902;SDS011;20232;49.408;8.702;2023-03-01T10:59:22;27.00;;;17.93;;
6902;SDS011;20232;49.408;8.702;2023-03-01T11:05:01;20.93;;;16.20;;
6902;SDS011;20232;49.408;8.702;2023-03-01T11:07:47;30.73;;;17.67;;
6902;SDS011;20232;49.408;8.702;2023-03-01T11:10:16;32.87;;;17.93;;
6902;SDS011;20232;49.408;8.702;2023-03-01T11:12:43;20.57;;;15.83;;
6902;SDS011;20232;49.408;8.702;2023-03-01T11:15:19;18.20;;;14.83;;
6902;SDS011;20232;49.408;8.702;2023-03-01T11:17:47;17.33;;;15.13;;
6902;SDS011;20232;49.408;8.702;2023-03-01T11:22:46;17.80;;;14.80;;
6902;SDS011;20232;49.408;8.702;2023-03-01T11:25:15;18.87;;;15.63;;
6902;SDS011;20232;49.408;8.702;2023-03-01T11:27:44;19.73;;;15.53;;
6902;SDS011;20232;49.408;8.702;2023-03-01T11:30:27;18.30;;;14.03;;
6902;SDS011;20232;49.408;8.702;2023-03-01T11:36:00;23.77;;;15.60;;
6902;SDS011;20232;49.408;8.702;2023-03-01T11:38:27;18.20;;;14.57;;
6902;SDS011;20232;49.408;8.702;2023-03-01T11:40:57;16.60;;;14.20;;
6902;SDS011;20232;49.408;8.702;2023-03-01T11:43:47;18.67;;;14.43;;
6902;SDS011;20232;49.408;8.702;2023-03-01T12:00:43;16.30;;;13.93;;
6902;SDS011;20232;49.408;8.702;2023-03-01T12:06:29;15.43;;;13.83;;
6902;SDS011;20232;49.408;8.702;2023-03-01T12:12:11;15.07;;;13.43;;
6902;SDS011;20232;49.408;8.702;2023-03-01T12:29:41;17.00;;;12.70;;
6902;SDS011;20232;49.408;8.702;2023-03-01T12:40:20;13.90;;;12.13;;
6902;SDS011;20232;49.408;8.702;2023-03-01T12:49:10;15.63;;;12.20;;
6902;SDS011;20232;49.408;8.702;2023-03-01T12:51:40;15.50;;;13.30;;
6902;SDS011;20232;49.408;8.702;2023-03-01T12:54:14;14.60;;;13.10;;
6902;SDS011;20232;49.408;8.702;2023-03-01T12:56:41;16.30;;;13.93;;
6902;SDS011;20232;49.408;8.702;2023-03-01T13:02:22;15.20;;;13.43;;
6902;SDS011;20232;49.408;8.702;2023-03-01T13:07:53;14.83;;;12.47;;
6902;SDS011;20232;49.408;8.702;2023-03-01T13:13:22;15.37;;;12.23;;
6902;SDS011;20232;49.408;8.702;2023-03-01T13:15:49;14.77;;;12.27;;
6902;SDS011;20232;49.408;8.702;2023-03-01T13:31:55;12.80;;;11.50;;
6902;SDS011;20232;49.408;8.702;2023-03-01T13:33:58;14.47;;;12.10;;
6902;SDS011;20232;49.408;8.702;2023-03-01T13:47:33;15.87;;;11.93;;
6902;SDS011;20232;49.408;8.702;2023-03-01T13:49:49;13.80;;;11.60;;
6902;SDS011;20232;49.408;8.702;2023-03-01T13:52:37;13.73;;;12.33;;
6902;SDS011;20232;49.408;8.702;2023-03-01T13:58:21;15.93;;;11.90;;
6902;SDS011;20232;49.408;8.702;2023-03-01T14:00:55;14.90;;;12.27;;
6902;SDS011;20232;49.408;8.702;2023-03-01T14:03:31;14.60;;;10.90;;
6902;SDS011;20232;49.408;8.702;2023-03-01T14:06:03;14.20;;;11.93;;
6902;SDS011;20232;49.408;8.702;2023-03-01T14:08:33;13.60;;;11.20;;
6902;SDS011;20232;49.408;8.702;2023-03-01T14:13:40;13.87;;;12.10;;
6902;SDS011;20232;49.408;8.702;2023-03-01T14:19:26;15.20;;;11.43;;
6902;SDS011;20232;49.408;8.702;2023-03-01T14:24:46;12.70;;;10.90;;
6902;SDS011;20232;49.408;8.702;2023-03-01T14:27:14;15.27;;;11.00;;
6902;SDS011;20232;49.408;8.702;2023-03-01T14:29:41;13.33;;;10.83;;
6902;SDS011;20232;49.408;8.702;2023-03-01T14:32:11;12.00;;;10.53;;
6902;SDS011;20232;49.408;8.702;2023-03-01T14:34:45;13.27;;;10.77;;
6902;SDS011;20232;49.408;8.702;2023-03-01T14:37:25;12.57;;;11.27;;
6902;SDS011;20232;49.408;8.702;2023-03-01T14:39:52;12.53;;;11.20;;
6902;SDS011;20232;49.408;8.702;2023-03-01T14:42:19;14.60;;;12.07;;
6902;SDS011;20232;49.408;8.702;2023-03-01T14:44:47;16.43;;;11.90;;
6902;SDS011;20232;49.408;8.702;2023-03-01T14:47:26;13.27;;;11.87;;
6902;SDS011;20232;49.408;8.702;2023-03-01T14:49:55;15.60;;;11.87;;
6902;SDS011;20232;49.408;8.702;2023-03-01T14:52:36;14.67;;;11.60;;
6902;SDS011;20232;49.408;8.702;2023-03-01T14:55:05;13.13;;;11.23;;
6902;SDS011;20232;49.408;8.702;2023-03-01T14:57:38;14.30;;;11.90;;
6902;SDS011;20232;49.408;8.702;2023-03-01T15:00:10;14.27;;;11.47;;
6902;SDS011;20232;49.408;8.702;2023-03-01T15:02:44;15.20;;;11.23;;
6902;SDS011;20232;49.408;8.702;2023-03-01T15:05:13;12.90;;;11.40;;
6902;SDS011;20232;49.408;8.702;2023-03-01T15:07:40;14.27;;;11.23;;
6902;SDS011;20232;49.408;8.702;2023-03-01T15:10:27;13.27;;;11.10;;
6902;SDS011;20232;49.408;8.702;2023-03-01T15:12:55;13.60;;;11.60;;
6902;SDS011;20232;49.408;8.702;2023-03-01T15:15:35;13.17;;;11.77;;
6902;SDS011;20232;49.408;8.702;2023-03-01T15:18:25;13.93;;;11.30;;
6902;SDS011;20232;49.408;8.702;2023-03-01T15:20:53;14.93;;;11.83;;
6902;SDS011;20232;49.408;8.702;2023-03-01T15:23:24;12.20;;;10.90;;
6902;SDS011;20232;49.408;8.702;2023-03-01T15:25:54;13.07;;;11.20;;
6902;SDS011;20232;49.408;8.702;2023-03-01T15:28:25;12.63;;;10.93;;
6902;SDS011;20232;49.408;8.702;2023-03-01T15:31:03;13.00;;;11.17;;
6902;SDS011;20232;49.408;8.702;2023-03-01T15:33:46;12.67;;;11.37;;
6902;SDS011;20232;49.408;8.702;2023-03-01T15:37:00;15.17;;;11.77;;
6902;SDS011;20232;49.408;8.702;2023-03-01T15:39:27;14.40;;;11.47;;
6902;SDS011;20232;49.408;8.702;2023-03-01T15:41:55;12.07;;;10.83;;
6902;SDS011;20232;49.408;8.702;2023-03-01T15:44:28;11.93;;;10.73;;
6902;SDS011;20232;49.408;8.702;2023-03-01T15:46:55;13.60;;;11.57;;
6902;SDS011;20232;49.408;8.702;2023-03-01T15:49:35;13.20;;;10.80;;
6902;SDS011;20232;49.408;8.702;2023-03-01T15:52:13;13.50;;;11.97;;
6902;SDS011;20232;49.408;8.702;2023-03-01T15:54:47;12.90;;;11.03;;
6902;SDS011;20232;49.408;8.702;2023-03-01T15:57:13;15.50;;;12.07;;
6902;SDS011;20232;49.408;8.702;2023-03-01T15:59:41;14.80;;;11.87;;
6902;SDS011;20232;49.408;8.702;2023-03-01T16:02:11;12.37;;;11.03;;
6902;SDS011;20232;49.408;8.702;2023-03-01T16:04:38;14.00;;;11.60;;
6902;SDS011;20232;49.408;8.702;2023-03-01T16:07:04;14.57;;;12.27;;
6902;SDS011;20232;49.408;8.702;2023-03-01T16:09:30;13.20;;;11.80;;
6902;SDS011;20232;49.408;8.702;2023-03-01T16:11:56;17.23;;;12.27;;
6902;SDS011;20232;49.408;8.702;2023-03-01T16:14:22;14.30;;;12.07;;
6902;SDS011;20232;49.408;8.702;2023-03-01T16:16:48;13.20;;;11.37;;
6902;SDS011;20232;49.408;8.702;2023-03-01T16:19:14;13.60;;;11.83;;
6902;SDS011;20232;49.408;8.702;2023-03-01T16:21:40;14.63;;;11.87;;
6902;SDS011;20232;49.408;8.702;2023-03-01T16:24:07;14.17;;;11.80;;
6902;SDS011;20232;49.408;8.702;2023-03-01T16:26:33;15.50;;;11.90;;
6902;SDS011;20232;49.408;8.702;2023-03-01T16:28:59;14.40;;;11.87;;
6902;SDS011;20232;49.408;8.702;2023-03-01T16:31:24;15.43;;;12.20;;
6902;SDS011;20232;49.408;8.702;2023-03-01T16:33:57;17.03;;;13.13;;
6902;SDS011;20232;49.408;8.702;2023-03-01T16:59:16;12.80;;;11.40;;
6902;SDS011;20232;49.408;8.702;2023-03-01T17:01:44;15.40;;;12.03;;
6902;SDS011;20232;49.408;8.702;2023-03-01T17:04:10;14.70;;;11.33;;
6902;SDS011;20232;49.408;8.702;2023-03-01T17:06:37;14.87;;;12.50;;
6902;SDS011;20232;49.408;8.702;2023-03-01T17:09:02;13.93;;;11.80;;
6902;SDS011;20232;49.408;8.702;2023-03-01T17:11:28;16.87;;;11.90;;
6902;SDS011;20232;49.408;8.702;2023-03-01T17:13:54;12.87;;;11.40;;
6902;SDS011;20232;49.408;8.702;2023-03-01T17:16:19;13.20;;;11.77;;
6902;SDS011;20232;49.408;8.702;2023-03-01T17:18:46;12.63;;;11.33;;
6902;SDS011;20232;49.408;8.702;2023-03-01T17:21:12;12.73;;;10.97;;
6902;SDS011;20232;49.408;8.702;2023-03-01T17:23:40;12.83;;;11.03;;
6902;SDS011;20232;49.408;8.702;2023-03-01T17:26:08;14.67;;;11.47;;
6902;SDS011;20232;49.408;8.702;2023-03-01T17:28:34;14.77;;;12.47;;
6902;SDS011;20232;49.408;8.702;2023-03-01T17:31:01;14.70;;;12.07;;
6902;SDS011;20232;49.408;8.702;2023-03-01T17:33:28;14.70;;;12.10;;
6902;SDS011;20232;49.408;8.702;2023-03-01T17:35:57;15.00;;;11.90;;
6902;SDS011;20232;49.408;8.702;2023-03-01T17:38:24;17.50;;;12.67;;
6902;SDS011;20232;49.408;8.702;2023-03-01T17:40:50;16.30;;;12.30;;
6902;SDS011;20232;49.408;8.702;2023-03-01T17:43:15;16.30;;;12.50;;
6902;SDS011;20232;49.408;8.702;2023-03-01T17:45:43;15.57;;;12.43;;
6902;SDS011;20232;49.408;8.702;2023-03-01T17:48:12;14.60;;;12.20;;
6902;SDS011;20232;49.408;8.702;2023-03-01T17:50:39;14.83;;;12.37;;
6902;SDS011;20232;49.408;8.702;2023-03-01T17:53:05;15.80;;;12.87;;
6902;SDS011;20232;49.408;8.702;2023-03-01T17:55:34;14.60;;;12.20;;
6902;SDS011;20232;49.408;8.702;2023-03-01T17:58:00;18.67;;;12.07;;
6902;SDS011;20232;49.408;8.702;2023-03-01T18:00:26;17.47;;;12.20;;
6902;SDS011;20232;49.408;8.702;2023-03-01T18:02:53;14.80;;;11.83;;
6902;SDS011;20232;49.408;8.702;2023-03-01T18:05:18;13.30;;;11.63;;
6902;SDS011;20232;49.408;8.702;2023-03-01T18:07:44;14.07;;;12.03;;
6902;SDS011;20232;49.408;8.702;2023-03-01T18:10:09;16.43;;;12.80;;
6902;SDS011;20232;49.408;8.702;2023-03-01T18:12:35;15.50;;;12.43;;
6902;SDS011;20232;49.408;8.702;2023-03-01T18:15:02;15.77;;;12.57;;
6902;SDS011;20232;49.408;8.702;2023-03-01T18:17:28;15.63;;;12.90;;
6902;SDS011;20232;49.408;8.702;2023-03-01T18:19:54;19.10;;;14.10;;
6902;SDS011;20232;49.408;8.702;2023-03-01T18:22:20;21.80;;;14.63;;
6902;SDS011;20232;49.408;8.702;2023-03-01T18:24:46;17.57;;;13.27;;
6902;SDS011;20232;49.408;8.702;2023-03-01T18:27:12;16.20;;;13.10;;
6902;SDS011;20232;49.408;8.702;2023-03-01T18:29:37;18.63;;;13.77;;
6902;SDS011;20232;49.408;8.702;2023-03-01T18:32:03;16.03;;;12.90;;
6902;SDS011;20232;49.408;8.702;2023-03-01T18:34:29;15.30;;;12.53;;
6902;SDS011;20232;49.408;8.702;2023-03-01T18:36:55;16.13;;;12.87;;
6902;SDS011;20232;49.408;8.702;2023-03-01T18:39:21;15.37;;;12.63;;
6902;SDS011;20232;49.408;8.702;2023-03-01T18:41:47;16.47;;;13.70;;
6902;SDS011;20232;49.408;8.702;2023-03-01T18:44:13;15.27;;;13.00;;
6902;SDS011;20232;49.408;8.702;2023-03-01T18:46:39;16.43;;;13.27;;
6902;SDS011;20232;49.408;8.702;2023-03-01T18:49:07;15.53;;;13.43;;
6902;SDS011;20232;49.408;8.702;2023-03-01T18:51:34;22.47;;;15.93;;
6902;SDS011;20232;49.408;8.702;2023-03-01T18:54:00;17.77;;;14.97;;
6902;SDS011;20232;49.408;8.702;2023-03-01T18:56:27;18.73;;;14.07;;
6902;SDS011;20232;49.408;8.702;2023-03-01T18:58:54;17.80;;;15.00;;
6902;SDS011;20232;49.408;8.702;2023-03-01T19:01:25;18.83;;;14.67;;
6902;SDS011;20232;49.408;8.702;2023-03-01T19:03:52;16.57;;;14.13;;
6902;SDS011;20232;49.408;8.702;2023-03-01T19:06:18;19.97;;;14.90;;
6902;SDS011;20232;49.408;8.702;2023-03-01T19:08:44;17.50;;;14.90;;
6902;SDS011;20232;49.408;8.702;2023-03-01T19:11:11;18.57;;;14.70;;
6902;SDS011;20232;49.408;8.702;2023-03-01T19:13:38;19.70;;;15.07;;
6902;SDS011;20232;49.408;8.702;2023-03-01T19:16:05;21.50;;;14.43;;
6902;SDS011;20232;49.408;8.702;2023-03-01T19:18:31;23.67;;;14.50;;
6902;SDS011;20232;49.408;8.702;2023-03-01T19:21:01;19.33;;;14.57;;
6902;SDS011;20232;49.408;8.702;2023-03-01T19:23:28;19.53;;;14.33;;
6902;SDS011;20232;49.408;8.702;2023-03-01T19:25:58;18.93;;;14.37;;
6902;SDS011;20232;49.408;8.702;2023-03-01T19:28:38;20.53;;;14.63;;
6902;SDS011;20232;49.408;8.702;2023-03-01T19:31:05;24.83;;;17.87;;
6902;SDS011;20232;49.408;8.702;2023-03-01T19:33:33;17.70;;;13.33;;
6902;SDS011;20232;49.408;8.702;2023-03-01T19:36:00;25.70;;;17.33;;
6902;SDS011;20232;49.408;8.702;2023-03-01T19:38:27;18.17;;;14.03;;
6902;SDS011;20232;49.408;8.702;2023-03-01T19:40:53;17.83;;;14.73;;
6902;SDS011;20232;49.408;8.702;2023-03-01T19:43:20;25.43;;;19.00;;
6902;SDS011;20232;49.408;8.702;2023-03-01T19:45:52;18.57;;;14.47;;
6902;SDS011;20232;49.408;8.702;2023-03-01T19:48:19;20.93;;;16.33;;
6902;SDS011;20232;49.408;8.702;2023-03-01T19:50:45;17.83;;;14.07;;
6902;SDS011;20232;49.408;8.702;2023-03-01T19:53:13;18.07;;;13.60;;
6902;SDS011;20232;49.408;8.702;2023-03-01T19:55:40;18.57;;;14.97;;
6902;SDS011;20232;49.408;8.702;2023-03-01T19:58:06;21.90;;;15.30;;
6902;SDS011;20232;49.408;8.702;2023-03-01T20:00:32;20.53;;;15.83;;
6902;SDS011;20232;49.408;8.702;2023-03-01T20:02:58;17.77;;;14.10;;
6902;SDS011;20232;49.408;8.702;2023-03-01T20:05:24;27.73;;;19.70;;
6902;SDS011;20232;49.408;8.702;2023-03-01T20:07:49;17.93;;;14.77;;
6902;SDS011;20232;49.408;8.702;2023-03-01T20:10:15;19.37;;;14.73;;
6902;SDS011;20232;49.408;8.702;2023-03-01T20:12:41;17.60;;;14.13;;
6902;SDS011;20232;49.408;8.702;2023-03-01T20:15:07;21.43;;;15.30;;
6902;SDS011;20232;49.408;8.702;2023-03-01T20:17:33;18.60;;;14.07;;
6902;SDS011;20232;49.408;8.702;2023-03-01T20:19:59;18.50;;;15.60;;
6902;SDS011;20232;49.408;8.702;2023-03-01T20:22:24;18.03;;;15.00;;
6902;SDS011;20232;49.408;8.702;2023-03-01T20:24:50;20.77;;;16.40;;
6902;SDS011;20232;49.408;8.702;2023-03-01T20:27:15;20.80;;;15.40;;
6902;SDS011;20232;49.408;8.702;2023-03-01T20:29:41;17.30;;;14.63;;
6902;SDS011;20232;49.408;8.702;2023-03-01T20:32:07;19.27;;;15.27;;
6902;SDS011;20232;49.408;8.702;2023-03-01T20:34:35;21.93;;;15.70;;
6902;SDS011;20232;49.408;8.702;2023-03-01T20:37:00;19.90;;;15.53;;
6902;SDS011;20232;49.408;8.702;2023-03-01T20:39:26;20.33;;;15.50;;
6902;SDS011;20232;49.408;8.702;2023-03-01T20:41:52;20.10;;;15.77;;
6902;SDS011;20232;49.408;8.702;2023-03-01T20:44:17;21.40;;;16.20;;
6902;SDS011;20232;49.408;8.702;2023-03-01T20:46:43;20.50;;;16.20;;
6902;SDS011;20232;49.408;8.702;2023-03-01T20:49:09;20.77;;;15.97;;
6902;SDS011;20232;49.408;8.702;2023-03-01T20:51:34;19.77;;;16.20;;
6902;SDS011;20232;49.408;8.702;2023-03-01T20:54:00;21.63;;;15.67;;
6902;SDS011;20232;49.408;8.702;2023-03-01T20:56:27;21.90;;;17.00;;
6902;SDS011;20232;49.408;8.702;2023-03-01T20:58:53;20.70;;;16.60;;
6902;SDS011;20232;49.408;8.702;2023-03-01T21:01:22;23.90;;;17.43;;
6902;SDS011;20232;49.408;8.702;2023-03-01T21:03:48;21.00;;;16.03;;
6902;SDS011;20232;49.408;8.702;2023-03-01T21:06:14;22.17;;;17.50;;
6902;SDS011;20232;49.408;8.702;2023-03-01T21:08:40;21.27;;;16.97;;
6902;SDS011;20232;49.408;8.702;2023-03-01T21:11:06;22.17;;;17.17;;
6902;SDS011;20232;49.408;8.702;2023-03-01T21:13:31;21.63;;;17.07;;
6902;SDS011;20232;49.408;8.702;2023-03-01T21:16:05;22.03;;;17.67;;
6902;SDS011;20232;49.408;8.702;2023-03-01T21:18:34;24.30;;;18.97;;
6902;SDS011;20232;49.408;8.702;2023-03-01T21:21:05;27.10;;;21.33;;
6902;SDS011;20232;49.408;8.702;2023-03-01T21:23:35;24.90;;;19.87;;
6902;SDS011;20232;49.408;8.702;2023-03-01T21:26:13;23.00;;;17.23;;
6902;SDS011;20232;49.408;8.702;2023-03-01T21:28:43;22.57;;;17.93;;
6902;SDS011;20232;49.408;8.702;2023-03-01T21:31:28;23.93;;;17.90;;
6902;SDS011;20232;49.408;8.702;2023-03-01T21:33:59;25.53;;;17.30;;
6902;SDS011;20232;49.408;8.702;2023-03-01T21:36:28;26.40;;;19.90;;
6902;SDS011;20232;49.408;8.702;2023-03-01T21:38:53;24.63;;;19.43;;
6902;SDS011;20232;49.408;8.702;2023-03-01T21:41:21;26.30;;;20.40;;
6902;SDS011;20232;49.408;8.702;2023-03-01T21:43:50;23.47;;;18.50;;
6902;SDS011;20232;49.408;8.702;2023-03-01T21:46:17;25.83;;;20.20;;
6902;SDS011;20232;49.408;8.702;2023-03-01T21:48:45;22.77;;;18.00;;
6902;SDS011;20232;49.408;8.702;2023-03-01T21:51:14;24.17;;;17.47;;
6902;SDS011;20232;49.408;8.702;2023-03-01T21:53:41;27.13;;;19.20;;
6902;SDS011;20232;49.408;8.702;2023-03-01T21:56:07;25.03;;;18.33;;
6902;SDS011;20232;49.408;8.702;2023-03-01T21:58:33;26.70;;;18.57;;
6902;SDS011;20232;49.408;8.702;2023-03-01T22:01:09;22.67;;;17.07;;
6902;SDS011;20232;49.408;8.702;2023-03-01T22:03:37;24.93;;;18.70;;
6902;SDS011;20232;49.408;8.702;2023-03-01T22:06:09;25.23;;;18.90;;
6902;SDS011;20232;49.408;8.702;2023-03-01T22:08:42;24.50;;;18.37;;